»·PEaware :: AFL101 KJFK-UUEE

AFL101 :: KJFK-UUEE

FLIGHT INFORMATION

Flight Status: Arrived
Operator:
Aeroflot
More flights by this operator :: More flights under this callsign
Pilot: Anonymous 35349 (35349)
Aircraft: BOEING 777-300
(B773)
More flights by this aircraft type
Origin: KJFK Kennedy Intl
United States
Destination: UUEE Sheremetyevo
Russian Federation
More flights between these airports :: More routes between these airports
Route:
File this flight plan on PilotEdge
Remarks:
Altitude:
(Current/Filed)
31,000ft
Speed:
(Current/Filed)
330kts
Departed: 05-Jul-21 10:08 AM
Arrived: 05-Jul-21 07:10 PM
Distance/Time
Traveled:
4037nm/9:02
Distance/Time
To Go:
Arrived

Flight Plot

Page will automatically refresh every two minutes.

Flight plan parsing failed; only flown route is shown


Map Options




Map Legend


Flown Route
Filed Route
Departure Airport
Arrival Airport
Navaid (VOR, NDB)
Fix

Horizontal Profiles

Position Reports

Time Latitude Longitude Heading Altitude Ground
Speed
05-Jul-21 10:05 40.622531 -73.785184 30 31ft 0kts
05-Jul-21 10:06 40.622531 -73.785184 30 31ft 0kts
05-Jul-21 10:07 40.630624 -73.778800 30 31ft 125kts
05-Jul-21 10:08 40.678205 -73.740731 32 1007ft 249kts
05-Jul-21 10:09 40.737427 -73.690677 32 2817ft 256kts
05-Jul-21 10:10 40.798072 -73.639272 32 4616ft 262kts
05-Jul-21 10:11 40.860345 -73.586360 32 6423ft 269kts
05-Jul-21 10:12 40.924099 -73.532051 32 8225ft 276kts
05-Jul-21 10:13 40.989131 -73.476511 32 9916ft 284kts
05-Jul-21 10:14 41.056428 -73.418877 32 9999ft 285kts
05-Jul-21 10:15 41.123094 -73.361618 32 10225ft 294kts
05-Jul-21 10:16 41.199064 -73.296166 33 11301ft 355kts
05-Jul-21 10:17 41.282339 -73.224148 33 12275ft 380kts
05-Jul-21 10:18 41.371313 -73.146484 36 13267ft 385kts
05-Jul-21 10:19 41.432383 -73.029007 61 14290ft 391kts
05-Jul-21 10:20 41.486085 -72.902135 59 15288ft 397kts
05-Jul-21 10:21 41.542265 -72.774011 59 16295ft 402kts
05-Jul-21 10:22 41.599162 -72.644013 59 17296ft 408kts
05-Jul-21 10:23 41.657097 -72.511833 59 18301ft 414kts
05-Jul-21 10:24 41.717180 -72.378846 58 19306ft 420kts
05-Jul-21 10:25 41.777986 -72.243570 59 20306ft 427kts
05-Jul-21 10:26 41.839442 -72.105991 59 21309ft 433kts
05-Jul-21 10:27 41.900308 -71.969088 59 22291ft 439kts
05-Jul-21 10:28 41.967980 -71.826873 46 23309ft 446kts
05-Jul-21 10:29 42.063602 -71.719490 38 24326ft 453kts
05-Jul-21 10:30 42.162008 -71.611413 39 25328ft 460kts
05-Jul-21 10:31 42.260644 -71.499356 40 26331ft 467kts
05-Jul-21 10:32 42.360622 -71.385247 40 27335ft 474kts
05-Jul-21 10:33 42.462043 -71.269092 40 28338ft 481kts
05-Jul-21 10:34 42.564637 -71.151074 40 29338ft 488kts
05-Jul-21 10:35 42.669058 -71.030408 40 30341ft 495kts
05-Jul-21 10:37 42.773563 -70.909088 40 30991ft 494kts
05-Jul-21 10:38 42.879953 -70.785006 40 31006ft 509kts
05-Jul-21 10:39 42.987238 -70.659286 40 31005ft 510kts
05-Jul-21 10:40 43.094828 -70.532601 40 31005ft 510kts
05-Jul-21 10:41 43.202152 -70.405620 40 31005ft 510kts
05-Jul-21 10:42 43.309087 -70.278488 40 31004ft 510kts
05-Jul-21 10:43 43.416279 -70.150432 41 31003ft 510kts
05-Jul-21 10:44 43.522982 -70.022337 41 31002ft 510kts
05-Jul-21 10:45 43.629653 -69.893653 41 31002ft 510kts
05-Jul-21 10:46 43.736396 -69.764248 41 31001ft 510kts
05-Jul-21 10:47 43.842619 -69.634839 41 31001ft 510kts
05-Jul-21 10:48 43.949109 -69.504460 41 31001ft 510kts
05-Jul-21 10:49 44.055184 -69.373943 41 31002ft 510kts
05-Jul-21 10:50 44.161267 -69.242761 41 31003ft 510kts
05-Jul-21 10:51 44.267163 -69.111155 41 31004ft 510kts
05-Jul-21 10:52 44.372777 -68.979233 41 31004ft 510kts
05-Jul-21 10:53 44.478293 -68.846771 41 31005ft 510kts
05-Jul-21 10:54 44.583602 -68.713896 42 31005ft 510kts
05-Jul-21 10:55 44.688832 -68.580439 42 31005ft 510kts
05-Jul-21 10:56 44.793679 -68.446790 42 31004ft 510kts
05-Jul-21 10:57 44.898671 -68.312268 42 31003ft 510kts
05-Jul-21 10:57 44.986206 -68.199579 42 31003ft 510kts
05-Jul-21 10:59 45.107894 -68.042112 42 31002ft 510kts
05-Jul-21 11:00 45.212389 -67.906131 42 31001ft 510kts
05-Jul-21 11:00 45.299440 -67.792305 42 31005ft 510kts
05-Jul-21 11:02 45.438968 -67.671908 20 31009ft 510kts
05-Jul-21 11:03 45.571645 -67.599305 22 31001ft 510kts
05-Jul-21 11:03 45.680547 -67.533465 23 31005ft 510kts
05-Jul-21 11:04 45.810699 -67.453696 23 31004ft 510kts
05-Jul-21 11:06 45.962975 -67.360318 23 31003ft 510kts
05-Jul-21 11:06 46.071585 -67.293386 23 31002ft 510kts
05-Jul-21 11:07 46.201578 -67.212882 23 31001ft 510kts
05-Jul-21 11:08 46.332173 -67.131583 23 31001ft 510kts
05-Jul-21 11:09 46.462265 -67.050176 23 31001ft 510kts
05-Jul-21 11:10 46.592239 -66.968418 23 31001ft 510kts
05-Jul-21 11:11 46.722160 -66.886262 23 31001ft 510kts
05-Jul-21 11:13 46.873762 -66.789847 23 31004ft 510kts
05-Jul-21 11:13 46.982153 -66.720549 23 31002ft 510kts
05-Jul-21 11:14 47.112164 -66.637019 23 31003ft 510kts
05-Jul-21 11:15 47.242020 -66.553140 23 31003ft 510kts
05-Jul-21 11:16 47.371701 -66.468924 23 31004ft 510kts
05-Jul-21 11:17 47.501208 -66.384367 23 31004ft 510kts
05-Jul-21 11:18 47.631072 -66.299114 23 31005ft 510kts
05-Jul-21 11:19 47.760664 -66.213575 24 31005ft 510kts
05-Jul-21 11:20 47.890122 -66.127656 24 31005ft 510kts
05-Jul-21 11:21 48.019460 -66.041342 24 31004ft 510kts
05-Jul-21 11:22 48.148818 -65.954540 24 31004ft 510kts
05-Jul-21 11:23 48.278162 -65.867262 24 31003ft 510kts
05-Jul-21 11:24 48.407350 -65.779603 24 31003ft 510kts
05-Jul-21 11:25 48.536685 -65.691350 24 31002ft 510kts
05-Jul-21 11:26 48.665503 -65.602956 24 31001ft 510kts
05-Jul-21 11:27 48.794799 -65.513731 24 31001ft 510kts
05-Jul-21 11:28 48.923838 -65.424174 24 31001ft 510kts
05-Jul-21 11:29 49.052462 -65.334398 24 31001ft 510kts
05-Jul-21 11:30 49.181615 -65.243730 24 31001ft 510kts
05-Jul-21 11:31 49.310380 -65.152814 24 31001ft 510kts
05-Jul-21 11:32 49.438881 -65.061560 24 31002ft 510kts
05-Jul-21 11:33 49.567419 -64.969747 24 31002ft 510kts
05-Jul-21 11:34 49.695997 -64.877368 25 31002ft 510kts
05-Jul-21 11:35 49.824518 -64.784488 25 31003ft 510kts
05-Jul-21 11:36 49.952855 -64.691193 25 31004ft 510kts
05-Jul-21 11:37 50.081202 -64.597335 25 31004ft 510kts
05-Jul-21 11:38 50.209620 -64.502866 25 31004ft 510kts
05-Jul-21 11:39 50.337902 -64.407932 25 31005ft 510kts
05-Jul-21 11:40 50.465667 -64.312811 25 31005ft 510kts
05-Jul-21 11:41 50.593937 -64.216738 25 31005ft 510kts
05-Jul-21 11:42 50.721646 -64.120502 25 31004ft 510kts
05-Jul-21 11:43 50.849373 -64.023668 25 31004ft 510kts
05-Jul-21 11:44 50.977540 -63.925901 25 31004ft 510kts
05-Jul-21 11:45 51.104977 -63.828095 25 31003ft 510kts
05-Jul-21 11:46 51.232537 -63.729590 25 31003ft 510kts
05-Jul-21 11:47 51.360281 -63.630328 25 31002ft 510kts
05-Jul-21 11:48 51.487524 -63.530835 26 31001ft 510kts
05-Jul-21 11:49 51.615140 -63.430428 26 31001ft 510kts
05-Jul-21 11:50 51.740669 -63.331043 26 31001ft 510kts
05-Jul-21 11:51 51.869278 -63.228577 26 31001ft 510kts
05-Jul-21 11:52 51.996481 -63.126582 26 31002ft 510kts
05-Jul-21 11:53 52.123430 -63.024139 26 31002ft 510kts
05-Jul-21 11:54 52.250432 -62.920993 26 31003ft 510kts
05-Jul-21 11:55 52.377534 -62.817101 26 31003ft 510kts
05-Jul-21 11:56 52.504017 -62.713044 26 31004ft 510kts
05-Jul-21 11:57 52.630676 -62.608165 26 31005ft 509kts
05-Jul-21 11:58 52.757339 -62.502597 26 31005ft 510kts
05-Jul-21 11:59 52.883603 -62.396667 26 31005ft 510kts
05-Jul-21 12:00 53.009904 -62.290009 27 31005ft 510kts
05-Jul-21 12:01 53.136199 -62.182647 27 31005ft 510kts
05-Jul-21 12:02 53.262673 -62.074416 27 31004ft 509kts
05-Jul-21 12:03 53.388533 -61.965989 27 31004ft 510kts
05-Jul-21 12:04 53.514614 -61.856640 27 31004ft 509kts
05-Jul-21 12:05 53.640534 -61.746694 27 31003ft 509kts
05-Jul-21 12:06 53.766194 -61.636226 27 31003ft 509kts
05-Jul-21 12:07 53.891873 -61.524990 27 31002ft 509kts
05-Jul-21 12:08 54.017351 -61.413171 27 31002ft 510kts
05-Jul-21 12:09 54.142931 -61.300488 27 31001ft 510kts
05-Jul-21 12:10 54.268415 -61.187112 27 31001ft 510kts
05-Jul-21 12:11 54.393745 -61.073088 28 31001ft 510kts
05-Jul-21 12:12 54.518829 -60.958488 28 31001ft 510kts
05-Jul-21 12:13 54.643968 -60.843037 28 31001ft 510kts
05-Jul-21 12:14 54.768683 -60.727165 28 31001ft 510kts
05-Jul-21 12:15 54.893493 -60.610382 28 31001ft 510kts
05-Jul-21 12:16 55.018006 -60.493047 28 31001ft 510kts
05-Jul-21 12:17 55.142811 -60.374598 28 31002ft 510kts
05-Jul-21 12:18 55.267152 -60.255737 28 31002ft 510kts
05-Jul-21 12:19 55.391378 -60.136130 28 31003ft 510kts
05-Jul-21 12:20 55.515526 -60.015730 28 31003ft 510kts
05-Jul-21 12:21 55.639993 -59.894140 29 31004ft 510kts
05-Jul-21 12:22 55.763970 -59.772139 29 31004ft 510kts
05-Jul-21 12:23 55.887745 -59.649442 29 31005ft 510kts
05-Jul-21 12:24 56.011497 -59.525859 29 31005ft 510kts
05-Jul-21 12:25 56.135090 -59.401518 29 31005ft 509kts
05-Jul-21 12:26 56.258415 -59.276519 29 31005ft 509kts
05-Jul-21 12:27 56.382092 -59.150222 29 31004ft 509kts
05-Jul-21 12:28 56.505107 -59.023654 29 31004ft 509kts
05-Jul-21 12:29 56.628363 -58.895875 29 31004ft 509kts
05-Jul-21 12:30 56.751133 -58.767631 29 31003ft 509kts
05-Jul-21 12:31 56.874158 -58.638140 30 31003ft 509kts
05-Jul-21 12:32 56.997041 -58.507800 30 31002ft 509kts
05-Jul-21 12:33 57.119389 -58.377023 30 31002ft 509kts
05-Jul-21 12:34 57.241901 -58.245056 30 31002ft 509kts
05-Jul-21 12:35 57.364201 -58.112288 30 31001ft 509kts
05-Jul-21 12:36 57.483063 -57.970172 46 30994ft 509kts
05-Jul-21 12:37 57.562349 -57.752438 58 31007ft 509kts
05-Jul-21 12:38 57.639795 -57.530885 55 31002ft 509kts
05-Jul-21 12:39 57.719863 -57.312290 55 31001ft 509kts
05-Jul-21 12:40 57.799408 -57.092352 56 31001ft 509kts
05-Jul-21 12:41 57.878306 -56.871850 56 31001ft 509kts
05-Jul-21 12:42 57.957081 -56.649603 56 31001ft 509kts
05-Jul-21 12:43 58.035238 -56.427005 56 31001ft 509kts
05-Jul-21 12:44 58.112982 -56.203598 56 31001ft 509kts
05-Jul-21 12:45 58.190645 -55.978264 56 31001ft 509kts
05-Jul-21 12:46 58.267635 -55.752740 57 31001ft 509kts
05-Jul-21 12:47 58.344087 -55.526637 57 31002ft 509kts
05-Jul-21 12:48 58.420628 -55.298115 57 31002ft 509kts
05-Jul-21 12:49 58.496289 -55.070034 57 31002ft 509kts
05-Jul-21 12:50 58.571928 -54.839769 57 31004ft 509kts
05-Jul-21 12:51 58.646687 -54.609966 58 31004ft 509kts
05-Jul-21 12:52 58.721422 -54.377946 58 31004ft 509kts
05-Jul-21 12:53 58.795550 -54.145556 58 31004ft 509kts
05-Jul-21 12:54 58.869475 -53.911500 58 31004ft 509kts
05-Jul-21 12:55 58.942834 -53.676874 58 31004ft 509kts
05-Jul-21 12:57 59.015749 -53.441291 59 31004ft 509kts
05-Jul-21 12:58 59.088279 -53.204599 59 31005ft 510kts
05-Jul-21 12:59 59.160300 -52.967151 59 31005ft 510kts
05-Jul-21 13:00 59.231823 -52.728896 59 31005ft 510kts
05-Jul-21 13:01 59.303159 -52.488818 59 31005ft 510kts
05-Jul-21 13:02 59.373918 -52.248174 60 31005ft 510kts
05-Jul-21 13:03 59.444201 -52.006536 60 31005ft 510kts
05-Jul-21 13:04 59.514114 -51.763590 60 31005ft 510kts
05-Jul-21 13:05 59.583408 -51.520582 60 31004ft 510kts
05-Jul-21 13:06 59.652363 -51.276000 61 31004ft 510kts
05-Jul-21 13:07 59.720970 -51.029853 61 31004ft 510kts
05-Jul-21 13:08 59.789029 -50.783187 61 31004ft 510kts
05-Jul-21 13:09 59.856543 -50.535766 61 31003ft 510kts
05-Jul-21 13:10 59.923760 -50.286649 61 31003ft 510kts
05-Jul-21 13:11 59.990241 -50.037617 62 31003ft 510kts
05-Jul-21 13:12 60.070172 -49.803454 52 31001ft 510kts
05-Jul-21 13:13 60.155594 -49.576322 53 31001ft 510kts
05-Jul-21 13:14 60.237771 -49.348878 54 31001ft 510kts
05-Jul-21 13:14 60.307869 -49.152852 54 31005ft 510kts
05-Jul-21 13:16 60.404244 -48.881050 54 31001ft 510kts
05-Jul-21 13:17 60.486295 -48.647125 54 31001ft 510kts
05-Jul-21 13:17 60.554454 -48.450991 54 31005ft 510kts
05-Jul-21 13:19 60.649355 -48.175121 55 31002ft 510kts
05-Jul-21 13:20 60.730224 -47.937429 55 31002ft 510kts
05-Jul-21 13:20 60.797326 -47.738334 55 31003ft 510kts
05-Jul-21 13:21 60.877151 -47.499247 55 31003ft 510kts
05-Jul-21 13:22 60.956945 -47.257758 55 31002ft 510kts
05-Jul-21 13:24 61.049379 -46.974832 56 31003ft 510kts
05-Jul-21 13:24 61.114847 -46.772327 56 31002ft 510kts
05-Jul-21 13:25 61.193259 -46.527427 56 31002ft 510kts
05-Jul-21 13:26 61.271092 -46.281733 56 31002ft 510kts
05-Jul-21 13:27 61.348542 -46.034618 57 31002ft 510kts
05-Jul-21 13:28 61.425731 -45.785671 57 31002ft 510kts
05-Jul-21 13:29 61.502252 -45.536182 57 31001ft 510kts
05-Jul-21 13:30 61.578390 -45.285220 57 31001ft 510kts
05-Jul-21 13:31 61.653802 -45.033909 57 31001ft 510kts
05-Jul-21 13:32 61.728876 -44.780948 58 31002ft 510kts
05-Jul-21 13:33 61.803564 -44.526477 58 31001ft 510kts
05-Jul-21 13:34 61.878023 -44.269921 58 31001ft 510kts
05-Jul-21 13:35 61.951603 -44.013523 58 31001ft 510kts
05-Jul-21 13:36 62.024849 -43.755368 59 31001ft 510kts
05-Jul-21 13:37 62.097603 -43.496002 59 31001ft 510kts
05-Jul-21 13:38 62.169849 -43.235469 59 31001ft 510kts
05-Jul-21 13:39 62.241812 -42.972934 59 31001ft 510kts
05-Jul-21 13:40 62.313070 -42.709907 59 31001ft 510kts
05-Jul-21 13:41 62.383850 -42.445556 60 31001ft 510kts
05-Jul-21 13:42 62.454062 -42.180207 60 31002ft 510kts
05-Jul-21 13:43 62.523760 -41.913637 60 31002ft 510kts
05-Jul-21 13:44 62.593129 -41.645119 60 31002ft 510kts
05-Jul-21 13:45 62.661994 -41.375301 61 31002ft 510kts
05-Jul-21 13:46 62.730200 -41.104782 61 31002ft 510kts
05-Jul-21 13:47 62.797913 -40.832896 61 31002ft 510kts
05-Jul-21 13:48 62.865102 -40.559742 61 31002ft 510kts
05-Jul-21 13:49 62.931709 -40.285564 62 31003ft 510kts
05-Jul-21 13:50 62.997564 -40.010090 64 30997ft 510kts
05-Jul-21 13:51 63.041944 -39.713416 74 31005ft 510kts
05-Jul-21 13:52 63.080458 -39.413033 73 31005ft 510kts
05-Jul-21 13:53 63.120552 -39.112942 73 31005ft 510kts
05-Jul-21 13:54 63.160024 -38.811883 74 31004ft 510kts
05-Jul-21 13:55 63.198801 -38.509784 74 31004ft 510kts
05-Jul-21 13:56 63.236915 -38.207067 74 31005ft 510kts
05-Jul-21 13:57 63.274456 -37.903033 74 31005ft 510kts
05-Jul-21 13:58 63.311217 -37.599280 75 31004ft 510kts
05-Jul-21 13:59 63.347440 -37.293838 75 31005ft 510kts
05-Jul-21 14:00 63.382849 -36.989012 75 31005ft 510kts
05-Jul-21 14:01 63.417768 -36.682009 75 31005ft 510kts
05-Jul-21 14:02 63.451913 -36.375303 76 31005ft 510kts
05-Jul-21 14:03 63.485500 -36.066947 76 31005ft 510kts
05-Jul-21 14:04 63.518438 -35.757720 76 31005ft 510kts
05-Jul-21 14:05 63.550617 -35.448668 77 31005ft 510kts
05-Jul-21 14:06 63.582135 -35.138877 77 31005ft 510kts
05-Jul-21 14:07 63.613050 -34.827735 77 31005ft 510kts
05-Jul-21 14:08 63.643205 -34.516818 77 31005ft 510kts
05-Jul-21 14:09 63.672796 -34.204096 78 31005ft 510kts
05-Jul-21 14:10 63.701609 -33.891793 78 31005ft 510kts
05-Jul-21 14:11 63.729797 -33.578271 78 31005ft 510kts
05-Jul-21 14:12 63.757316 -33.263982 78 31005ft 510kts
05-Jul-21 14:13 63.784084 -32.949876 79 31005ft 510kts
05-Jul-21 14:14 63.810228 -32.634436 79 31005ft 510kts
05-Jul-21 14:15 63.835622 -32.319199 79 31004ft 510kts
05-Jul-21 14:16 63.860407 -32.002365 80 31005ft 510kts
05-Jul-21 14:17 63.884461 -31.685480 80 31004ft 510kts
05-Jul-21 14:18 63.907786 -31.368554 80 31004ft 510kts
05-Jul-21 14:19 63.930506 -31.049828 80 31004ft 510kts
05-Jul-21 14:20 63.952412 -30.732270 81 31004ft 510kts
05-Jul-21 14:21 63.973735 -30.412510 81 31004ft 510kts
05-Jul-21 14:22 63.994306 -30.093019 81 31004ft 510kts
05-Jul-21 14:23 64.008913 -29.771839 86 31001ft 510kts
05-Jul-21 14:24 64.018097 -29.449647 86 31001ft 510kts
05-Jul-21 14:25 64.027523 -29.127651 86 31001ft 510kts
05-Jul-21 14:26 64.036386 -28.805051 86 31001ft 510kts
05-Jul-21 14:27 64.044472 -28.482109 86 31001ft 510kts
05-Jul-21 14:28 64.051853 -28.158684 87 31001ft 510kts
05-Jul-21 14:29 64.058505 -27.835713 87 31001ft 510kts
05-Jul-21 14:30 64.064452 -27.511970 87 31001ft 510kts
05-Jul-21 14:31 64.069677 -27.188146 88 31001ft 510kts
05-Jul-21 14:32 64.074173 -26.865047 88 31001ft 510kts
05-Jul-21 14:33 64.077956 -26.541451 88 31001ft 510kts
05-Jul-21 14:34 64.081029 -26.216772 88 31001ft 510kts
05-Jul-21 14:35 64.083369 -25.893376 89 31001ft 510kts
05-Jul-21 14:36 64.084993 -25.569698 89 31001ft 510kts
05-Jul-21 14:37 64.085870 -25.261856 89 31002ft 510kts
05-Jul-21 14:38 64.086084 -24.921454 90 31001ft 510kts
05-Jul-21 14:39 64.085550 -24.597721 90 31001ft 510kts
05-Jul-21 14:40 64.084294 -24.273776 90 31002ft 510kts
05-Jul-21 14:41 64.082321 -23.949988 90 31001ft 510kts
05-Jul-21 14:42 64.079623 -23.625860 91 31001ft 510kts
05-Jul-21 14:43 64.076204 -23.301709 91 31001ft 510kts
05-Jul-21 14:44 64.072072 -22.978148 91 31001ft 510kts
05-Jul-21 14:45 64.067223 -22.654828 92 31001ft 510kts
05-Jul-21 14:46 64.061662 -22.331866 92 31001ft 510kts
05-Jul-21 14:47 64.055362 -22.007957 92 31001ft 510kts
05-Jul-21 14:48 64.048353 -21.684650 92 31001ft 510kts
05-Jul-21 14:49 64.040637 -21.361973 93 31001ft 510kts
05-Jul-21 14:50 64.032191 -21.038943 93 31001ft 510kts
05-Jul-21 14:51 64.023026 -20.715920 93 31001ft 510kts
05-Jul-21 14:52 64.013150 -20.393378 94 31001ft 510kts
05-Jul-21 14:53 64.002570 -20.071377 94 31001ft 510kts
05-Jul-21 14:54 64.006288 -19.749036 84 31002ft 510kts
05-Jul-21 14:55 64.018807 -19.427097 85 31001ft 510kts
05-Jul-21 14:56 64.028300 -19.105361 86 31001ft 510kts
05-Jul-21 14:57 64.036964 -18.782302 86 31001ft 510kts
05-Jul-21 14:58 64.045014 -18.459175 86 31001ft 510kts
05-Jul-21 14:59 64.052347 -18.135884 87 31001ft 510kts
05-Jul-21 15:00 64.058945 -17.813118 87 31001ft 510kts
05-Jul-21 15:01 64.064848 -17.488961 87 31001ft 510kts
05-Jul-21 15:02 64.070015 -17.165553 88 31001ft 510kts
05-Jul-21 15:03 64.074473 -16.841552 88 31001ft 510kts
05-Jul-21 15:04 64.078200 -16.518236 88 31001ft 510kts
05-Jul-21 15:05 64.081211 -16.194660 88 31001ft 510kts
05-Jul-21 15:06 64.083513 -15.869636 89 31001ft 510kts
05-Jul-21 15:07 64.085085 -15.545622 89 31001ft 510kts
05-Jul-21 15:08 64.085936 -15.222108 89 31001ft 510kts
05-Jul-21 15:09 64.086069 -14.897893 90 31001ft 510kts
05-Jul-21 15:10 64.085481 -14.573806 90 31002ft 510kts
05-Jul-21 15:11 64.084171 -14.249518 90 31002ft 510kts
05-Jul-21 15:12 64.082140 -13.925329 90 31002ft 510kts
05-Jul-21 15:13 64.079394 -13.601653 91 31002ft 510kts
05-Jul-21 15:14 64.075921 -13.277500 91 31002ft 510kts
05-Jul-21 15:15 64.071736 -12.954069 91 31003ft 510kts
05-Jul-21 15:16 64.066839 -12.631125 92 31002ft 510kts
05-Jul-21 15:17 64.061209 -12.307261 92 31002ft 510kts
05-Jul-21 15:18 64.054847 -11.983037 92 31003ft 510kts
05-Jul-21 15:19 64.047795 -11.660268 93 31003ft 510kts
05-Jul-21 15:21 64.040007 -11.336880 93 31003ft 510kts
05-Jul-21 15:22 64.031526 -11.014557 93 31004ft 510kts
05-Jul-21 15:23 64.022296 -10.691253 93 31004ft 510kts
05-Jul-21 15:24 64.012368 -10.368788 94 31004ft 510kts
05-Jul-21 15:25 64.001734 -10.046847 94 31004ft 510kts
05-Jul-21 15:26 63.983605 -9.726217 98 31004ft 510kts
05-Jul-21 15:27 63.961722 -9.406989 98 31004ft 510kts
05-Jul-21 15:28 63.940058 -9.088507 98 31004ft 510kts
05-Jul-21 15:29 63.917728 -8.770219 99 31005ft 510kts
05-Jul-21 15:30 63.894704 -8.453074 99 31005ft 510kts
05-Jul-21 15:31 63.870903 -8.135343 99 31005ft 510kts
05-Jul-21 15:32 63.846492 -7.819220 100 31005ft 510kts
05-Jul-21 15:33 63.821300 -7.502521 100 31005ft 510kts
05-Jul-21 15:34 63.795492 -7.187312 100 31005ft 510kts
05-Jul-21 15:35 63.768952 -6.872135 100 31004ft 510kts
05-Jul-21 15:36 63.741696 -6.557216 101 31004ft 510kts
05-Jul-21 15:37 63.713836 -6.243815 101 31004ft 510kts
05-Jul-21 15:38 63.685262 -5.930668 101 31004ft 510kts
05-Jul-21 15:39 63.656009 -5.618152 102 31004ft 510kts
05-Jul-21 15:40 63.626136 -5.306868 102 31004ft 510kts
05-Jul-21 15:41 63.595510 -4.995429 102 31004ft 510kts
05-Jul-21 15:41 63.569477 -4.736442 102 31002ft 510kts
05-Jul-21 15:43 63.532252 -4.374691 103 31003ft 510kts
05-Jul-21 15:44 63.499756 -4.066656 103 31004ft 510kts
05-Jul-21 15:44 63.471972 -3.808639 103 31003ft 510kts
05-Jul-21 15:46 63.432530 -3.450378 103 31003ft 510kts
05-Jul-21 15:46 63.403752 -3.194574 104 31003ft 510kts
05-Jul-21 15:47 63.368572 -2.887923 104 31004ft 510kts
05-Jul-21 15:49 63.326769 -2.531688 104 31002ft 510kts
05-Jul-21 15:49 63.296285 -2.277203 105 31004ft 510kts
05-Jul-21 15:51 63.252947 -1.922626 105 31002ft 510kts
05-Jul-21 15:51 63.221489 -1.670313 105 31005ft 510kts
05-Jul-21 15:52 63.183027 -1.367292 105 31005ft 510kts
05-Jul-21 15:53 63.144024 -1.065869 106 31005ft 510kts
05-Jul-21 15:54 63.104295 -0.764601 106 31005ft 510kts
05-Jul-21 15:55 63.063982 -0.464544 106 31005ft 510kts
05-Jul-21 15:56 63.023063 -0.165526 106 31004ft 510kts
05-Jul-21 15:57 62.986186 0.134729 101 31002ft 510kts
05-Jul-21 15:58 62.959366 0.441091 101 31001ft 510kts
05-Jul-21 15:59 62.929949 0.746215 102 31001ft 510kts
05-Jul-21 16:00 62.899556 1.049548 102 31001ft 510kts
05-Jul-21 16:01 62.869089 1.347870 102 31001ft 510kts
05-Jul-21 16:02 62.836914 1.655888 103 31001ft 510kts
05-Jul-21 16:03 62.804676 1.957540 103 31002ft 510kts
05-Jul-21 16:04 62.771789 2.258573 103 31002ft 510kts
05-Jul-21 16:05 62.738143 2.559961 103 31002ft 510kts
05-Jul-21 16:06 62.704037 2.859059 104 31003ft 510kts
05-Jul-21 16:07 62.669170 3.158548 104 31003ft 510kts
05-Jul-21 16:08 62.633667 3.457297 104 31003ft 510kts
05-Jul-21 16:09 62.597552 3.755162 104 31004ft 510kts
05-Jul-21 16:10 62.560869 4.051791 105 31004ft 510kts
05-Jul-21 16:11 62.523506 4.348096 105 31004ft 510kts
05-Jul-21 16:12 62.485523 4.643603 105 31004ft 510kts
05-Jul-21 16:13 62.446943 4.938163 105 31005ft 510kts
05-Jul-21 16:14 62.407659 5.232586 106 31005ft 510kts
05-Jul-21 16:15 62.367828 5.525706 106 31005ft 510kts
05-Jul-21 16:16 62.327345 5.818301 106 31005ft 510kts
05-Jul-21 16:17 62.286167 6.110692 106 31005ft 510kts
05-Jul-21 16:18 62.244545 6.401107 107 31005ft 510kts
05-Jul-21 16:19 62.202207 6.691477 107 31005ft 510kts
05-Jul-21 16:20 62.160542 6.972471 107 31005ft 510kts
05-Jul-21 16:21 62.115877 7.268687 107 31005ft 510kts
05-Jul-21 16:22 62.071760 7.556405 108 31004ft 510kts
05-Jul-21 16:23 62.026940 7.843959 108 31004ft 510kts
05-Jul-21 16:24 61.981681 8.129688 108 31003ft 510kts
05-Jul-21 16:25 61.935766 8.414968 108 31003ft 510kts
05-Jul-21 16:26 61.889342 8.698903 109 31003ft 510kts
05-Jul-21 16:27 61.842346 8.981917 109 31002ft 510kts
05-Jul-21 16:28 61.794658 9.264715 109 31002ft 510kts
05-Jul-21 16:29 61.746533 9.545800 109 31002ft 510kts
05-Jul-21 16:30 61.697677 9.826910 110 31002ft 510kts
05-Jul-21 16:31 61.648270 10.106997 110 31001ft 510kts
05-Jul-21 16:32 61.598326 10.385994 110 31001ft 510kts
05-Jul-21 16:33 61.547820 10.664077 110 31001ft 510kts
05-Jul-21 16:34 61.496866 10.940614 111 31001ft 510kts
05-Jul-21 16:35 61.445174 11.217208 111 31001ft 510kts
05-Jul-21 16:36 61.392926 11.492866 111 31001ft 510kts
05-Jul-21 16:37 61.340202 11.767182 111 31001ft 510kts
05-Jul-21 16:38 61.286929 12.040567 112 31001ft 510kts
05-Jul-21 16:39 61.233060 12.313260 112 31002ft 510kts
05-Jul-21 16:40 61.178631 12.585089 112 31003ft 510kts
05-Jul-21 16:41 61.144019 12.866549 90 31014ft 510kts
05-Jul-21 16:42 61.147929 13.159359 89 31005ft 510kts
05-Jul-21 16:43 61.146200 13.453351 91 31005ft 510kts
05-Jul-21 16:44 61.142509 13.746395 91 31005ft 510kts
05-Jul-21 16:45 61.138479 14.040334 91 31005ft 510kts
05-Jul-21 16:46 61.133851 14.333854 92 31004ft 510kts
05-Jul-21 16:47 61.128586 14.626599 92 31004ft 510kts
05-Jul-21 16:48 61.122676 14.919764 92 31004ft 510kts
05-Jul-21 16:49 61.116145 15.212320 92 31004ft 510kts
05-Jul-21 16:50 61.108969 15.505277 93 31004ft 510kts
05-Jul-21 16:51 61.101153 15.798337 93 31004ft 510kts
05-Jul-21 16:52 61.092728 16.090405 93 31004ft 510kts
05-Jul-21 16:53 61.083638 16.383401 93 31003ft 510kts
05-Jul-21 16:54 61.073936 16.675582 94 31003ft 510kts
05-Jul-21 16:55 61.063605 16.967559 94 31003ft 510kts
05-Jul-21 16:56 61.052646 17.259287 94 31002ft 510kts
05-Jul-21 16:57 61.041070 17.550526 94 31003ft 510kts
05-Jul-21 16:58 61.028850 17.841949 95 31002ft 510kts
05-Jul-21 16:59 61.015989 18.133447 95 31002ft 510kts
05-Jul-21 17:00 61.002512 18.424423 95 31002ft 510kts
05-Jul-21 17:01 60.988414 18.715078 95 31002ft 510kts
05-Jul-21 17:02 60.973673 19.005761 96 31002ft 510kts
05-Jul-21 17:03 60.958311 19.295970 96 31001ft 510kts
05-Jul-21 17:04 60.942363 19.585589 96 31001ft 510kts
05-Jul-21 17:05 60.925777 19.875021 96 31001ft 510kts
05-Jul-21 17:06 60.908560 20.164303 97 31001ft 510kts
05-Jul-21 17:07 60.890708 20.453516 97 31001ft 510kts
05-Jul-21 17:08 60.872271 20.741861 97 31001ft 510kts
05-Jul-21 17:09 60.853160 21.030738 97 31001ft 510kts
05-Jul-21 17:10 60.833516 21.318023 98 31002ft 510kts
05-Jul-21 17:11 60.813221 21.605498 98 31002ft 510kts
05-Jul-21 17:12 60.792268 21.893197 98 31003ft 510kts
05-Jul-21 17:13 60.770066 22.180025 100 31004ft 510kts
05-Jul-21 17:14 60.739643 22.463181 102 31004ft 510kts
05-Jul-21 17:15 60.708348 22.745443 102 31004ft 510kts
05-Jul-21 17:16 60.676947 23.028058 102 31005ft 510kts
05-Jul-21 17:17 60.645011 23.309370 103 31005ft 510kts
05-Jul-21 17:18 60.612406 23.590585 103 31005ft 510kts
05-Jul-21 17:19 60.579730 23.866919 103 31005ft 510kts
05-Jul-21 17:20 60.545514 24.150675 103 31005ft 510kts
05-Jul-21 17:21 60.511081 24.430729 104 31004ft 510kts
05-Jul-21 17:22 60.476158 24.709436 104 31003ft 510kts
05-Jul-21 17:23 60.440726 24.986986 104 31003ft 510kts
05-Jul-21 17:24 60.404538 25.265296 104 31002ft 510kts
05-Jul-21 17:25 60.367931 25.541789 105 31002ft 510kts
05-Jul-21 17:26 60.330705 25.818000 105 31002ft 510kts
05-Jul-21 17:27 60.292830 26.094131 105 31002ft 510kts
05-Jul-21 17:28 60.254529 26.368587 105 31001ft 510kts
05-Jul-21 17:29 60.215539 26.643265 106 31001ft 510kts
05-Jul-21 17:30 60.176061 26.916766 106 31001ft 510kts
05-Jul-21 17:31 60.146267 27.195722 100 31003ft 510kts
05-Jul-21 17:32 60.119971 27.473038 101 31003ft 510kts
05-Jul-21 17:33 60.091418 27.753289 101 31004ft 510kts
05-Jul-21 17:34 60.062443 28.031196 101 31005ft 510kts
05-Jul-21 17:35 60.032880 28.309244 102 31004ft 510kts
05-Jul-21 17:36 60.002786 28.586295 102 31004ft 510kts
05-Jul-21 17:37 59.971960 28.863206 102 31004ft 510kts
05-Jul-21 17:38 59.939652 29.138378 103 31004ft 510kts
05-Jul-21 17:39 59.906754 29.412923 103 31003ft 510kts
05-Jul-21 17:40 59.873332 29.687206 103 31002ft 510kts
05-Jul-21 17:41 59.839981 29.955803 103 31002ft 510kts
05-Jul-21 17:42 59.805210 30.229594 104 31002ft 510kts
05-Jul-21 17:43 59.769742 30.500534 104 31001ft 510kts
05-Jul-21 17:44 59.733775 30.770721 104 31001ft 510kts
05-Jul-21 17:45 59.697167 31.041485 105 31001ft 510kts
05-Jul-21 17:46 59.646506 31.302148 119 31008ft 510kts
05-Jul-21 17:47 59.575511 31.545618 119 31001ft 510kts
05-Jul-21 17:48 59.507092 31.790298 118 31001ft 510kts
05-Jul-21 17:50 59.422511 32.012727 132 31008ft 510kts
05-Jul-21 17:51 59.326254 32.216942 131 31001ft 510kts
05-Jul-21 17:52 59.232097 32.424237 131 31001ft 510kts
05-Jul-21 17:53 59.137661 32.631202 131 31002ft 510kts
05-Jul-21 17:54 59.042835 32.836659 131 31002ft 510kts
05-Jul-21 17:55 58.947773 33.040753 132 31003ft 510kts
05-Jul-21 17:56 58.852230 33.244088 132 31004ft 510kts
05-Jul-21 17:57 58.756386 33.446270 132 31004ft 510kts
05-Jul-21 17:58 58.660533 33.646646 132 31004ft 510kts
05-Jul-21 17:59 58.564057 33.846678 132 31005ft 510kts
05-Jul-21 18:00 58.467441 34.045244 133 31005ft 510kts
05-Jul-21 18:01 58.370525 34.242677 133 31004ft 510kts
05-Jul-21 18:02 58.273150 34.439356 133 31004ft 510kts
05-Jul-21 18:03 58.173510 34.631203 138 31005ft 510kts
05-Jul-21 18:04 58.063789 34.801541 140 31005ft 510kts
05-Jul-21 18:05 57.954232 34.971633 140 31004ft 510kts
05-Jul-21 18:06 57.844927 35.142018 140 31004ft 510kts
05-Jul-21 18:07 57.735658 35.310747 140 31004ft 510kts
05-Jul-21 18:08 57.625908 35.478775 140 31003ft 510kts
05-Jul-21 18:09 57.515957 35.646282 140 31003ft 510kts
05-Jul-21 18:10 57.405992 35.812808 140 31002ft 510kts
05-Jul-21 18:11 57.295737 35.978367 141 31001ft 510kts
05-Jul-21 18:11 57.203747 36.115481 141 31005ft 510kts
05-Jul-21 18:13 57.074840 36.306112 141 31001ft 510kts
05-Jul-21 18:14 56.963869 36.467750 141 31001ft 510kts
05-Jul-21 18:14 56.871814 36.599950 141 31005ft 510kts
05-Jul-21 18:15 56.760565 36.760381 141 31005ft 510kts
05-Jul-21 18:17 56.611403 36.879232 169 31010ft 510kts
05-Jul-21 18:18 56.472494 36.928017 167 31001ft 510kts
05-Jul-21 18:18 56.357227 36.977149 166 31005ft 510kts
05-Jul-21 18:19 56.219097 37.036893 166 31007ft 510kts
05-Jul-21 18:21 56.057755 37.105300 166 31001ft 510kts
05-Jul-21 18:21 55.943814 37.159817 154 30979ft 510kts
05-Jul-21 18:22 55.865297 37.357440 96 31003ft 510kts
05-Jul-21 18:23 55.878036 37.609066 85 31006ft 510kts
05-Jul-21 18:24 55.889237 37.860138 85 31004ft 510kts
05-Jul-21 18:25 55.899975 38.112237 85 31005ft 510kts
05-Jul-21 18:26 55.910563 38.365208 85 31004ft 510kts
05-Jul-21 18:27 55.920946 38.617338 85 31004ft 510kts
05-Jul-21 18:28 55.931151 38.869389 85 31003ft 510kts
05-Jul-21 18:29 55.941181 39.121602 85 31002ft 510kts
05-Jul-21 18:30 55.951074 39.374071 86 31002ft 510kts
05-Jul-21 18:31 55.960835 39.626430 86 31001ft 510kts
05-Jul-21 18:32 55.970444 39.879812 86 31001ft 510kts
05-Jul-21 18:33 55.979864 40.132457 86 31001ft 510kts
05-Jul-21 18:35 55.990620 40.426978 86 31004ft 510kts
05-Jul-21 18:35 55.998203 40.638103 86 31002ft 510kts
05-Jul-21 18:36 56.007128 40.890676 86 31003ft 510kts
05-Jul-21 18:37 56.015831 41.140730 86 29680ft 483kts
05-Jul-21 18:38 56.080293 41.322867 24 27802ft 429kts
05-Jul-21 18:39 56.186174 41.288340 313 25988ft 404kts
05-Jul-21 18:40 56.209925 41.100883 266 24226ft 393kts
05-Jul-21 18:41 56.200806 40.907892 264 22439ft 382kts
05-Jul-21 18:42 56.191123 40.719956 264 20648ft 372kts
05-Jul-21 18:43 56.181487 40.537627 264 18861ft 362kts
05-Jul-21 18:44 56.171943 40.362282 264 17095ft 352kts
05-Jul-21 18:45 56.162252 40.188143 264 15270ft 336kts
05-Jul-21 18:46 56.153258 40.027975 264 13461ft 312kts
05-Jul-21 18:47 56.144709 39.876917 264 11644ft 295kts
05-Jul-21 18:48 56.136690 39.733815 264 9845ft 284kts
05-Jul-21 18:49 56.129367 39.594156 264 8042ft 277kts
05-Jul-21 18:50 56.122099 39.458124 264 7013ft 273kts
05-Jul-21 18:51 56.114709 39.322678 264 7004ft 273kts
05-Jul-21 18:52 56.107181 39.187538 264 7002ft 273kts
05-Jul-21 18:53 56.099490 39.052152 264 7002ft 273kts
05-Jul-21 18:54 56.091652 38.916847 264 7004ft 273kts
05-Jul-21 18:55 56.083785 38.783645 263 6844ft 246kts
05-Jul-21 18:56 56.076613 38.664446 263 6359ft 238kts
05-Jul-21 18:57 56.069417 38.546740 263 6005ft 237kts
05-Jul-21 18:58 56.062184 38.430302 263 5026ft 234kts
05-Jul-21 18:59 56.054953 38.315677 263 4026ft 230kts
05-Jul-21 19:00 56.047706 38.202511 263 3059ft 227kts
05-Jul-21 19:01 56.040394 38.089986 263 3001ft 227kts
05-Jul-21 19:02 56.033611 37.987072 263 2959ft 182kts
05-Jul-21 19:03 56.027637 37.897599 263 3005ft 181kts
05-Jul-21 19:04 56.021577 37.807792 263 3004ft 181kts
05-Jul-21 19:05 56.015455 37.717987 263 3000ft 181kts
05-Jul-21 19:06 56.006057 37.629790 254 3007ft 181kts
05-Jul-21 19:07 55.993732 37.548901 253 2155ft 153kts
05-Jul-21 19:08 55.982397 37.476734 256 954ft 149kts
05-Jul-21 19:09 55.974724 37.420669 255 648ft 0kts
05-Jul-21 19:10 55.974726 37.420678 255 648ft 0kts
05-Jul-21 19:11 55.974727 37.420688 255 648ft 0kts

Navigation Log

Ident Type
Flight plan parsing failed, navigation log unavailable